Terminal Aerodrome Forecast
Issued by NWS

Home | Current Version | Previous Version | Text Only | Print | Product List | Glossary On
Versions: 1 2 3 4 5 6 7 8 9 10 11 12 13 14 15 16 17 18 19 20 21 22 23 24 25
000
FTUS43 KDDC 201724
TAFGCK
TAF
KGCK 201724Z 2018/2118 21015G23KT P6SM FEW110
     FM202300 18014KT P6SM VCTS SCT120CB
     FM210300 16011KT P6SM BKN100
     FM211400 20013KT P6SM FEW200=

USA.gov is the U.S. government's official web portal to all federal, state and local government web resources and services.